Peotone Weather
Station Historical Data
Daily Summary for February 12, 2018 Units:  English    Metric   Both
« Previous Day
Next Day »
Daily Weekly Monthly Yearly Custom
  High: Low: Average:
Temperature: 28.6 °F 3.3 °F 14.4 °F
Dew Point: 18.3 °F -0.2 °F 8.8 °F
Humidity: 90% 60% 79%
Wind Speed: 9.2mph 0.0mph 3.6mph
Wind Gust: 12.6mph - -
Wind- - SW
Pressure: 30.82 in 30.44 in -
Precipitation: 0.00 in    
Historical Graphs
 
 
Tabular Data for February 12, 2018
Time Temperature Dew Point Pressure Wind Wind Speed Wind Gust Humidity Rainfall Rate (Hourly) solar Conditions
00:00 8.9 °F 4.3 °F 30.44 in WNW 5.8 mph 11.5 mph 81% 0.00 in 0.00 W/m2
00:04 8.9 °F 4.3 °F 30.44 in WNW 8.1 mph 11.5 mph 81% 0.00 in 0.00 W/m2
00:05 8.9 °F 4.3 °F 30.44 in West 6.9 mph 11.5 mph 81% 0.00 in 0.00 W/m2
00:10 8.9 °F 4.3 °F 30.44 in WNW 6.9 mph 11.5 mph 81% 0.00 in 0.00 W/m2
00:15 8.9 °F 4.3 °F 30.44 in WNW 9.2 mph 11.5 mph 81% 0.00 in 0.00 W/m2
00:20 8.9 °F 4.3 °F 30.45 in WNW 5.8 mph 10.3 mph 81% 0.00 in 0.00 W/m2
00:25 8.8 °F 4.2 °F 30.46 in WNW 4.6 mph 10.3 mph 81% 0.00 in 0.00 W/m2
00:30 8.7 °F 4.1 °F 30.46 in WNW 6.9 mph 9.2 mph 81% 0.00 in 0.00 W/m2
00:35 8.6 °F 4.0 °F 30.47 in WNW 6.9 mph 9.2 mph 81% 0.00 in 0.00 W/m2
00:40 8.6 °F 4.0 °F 30.47 in WNW 6.9 mph 9.2 mph 81% 0.00 in 0.00 W/m2
00:45 8.5 °F 3.9 °F 30.47 in NW 5.8 mph 9.2 mph 81% 0.00 in 0.00 W/m2
00:50 8.4 °F 3.8 °F 30.47 in WNW 6.9 mph 6.9 mph 81% 0.00 in 0.00 W/m2
00:55 8.3 °F 3.7 °F 30.48 in WNW 6.9 mph 6.9 mph 81% 0.00 in 0.00 W/m2
01:00 8.3 °F 4.0 °F 30.47 in WNW 4.6 mph 5.8 mph 82% 0.00 in 0.00 W/m2
01:05 8.2 °F 3.8 °F 30.47 in WNW 9.2 mph 9.2 mph 82% 0.00 in 0.00 W/m2
01:06 8.2 °F 3.8 °F 30.47 in WNW 8.1 mph 9.2 mph 82% 0.00 in 0.00 W/m2
01:10 8.2 °F 3.8 °F 30.48 in WNW 8.1 mph 12.6 mph 82% 0.00 in 0.00 W/m2
01:11 8.2 °F 3.8 °F 30.48 in WNW 6.9 mph 8.1 mph 82% 0.00 in 0.00 W/m2
01:15 8.1 °F 3.8 °F 30.48 in WNW 3.5 mph 9.2 mph 82% 0.00 in 0.00 W/m2
01:16 8.1 °F 3.8 °F 30.48 in NW 4.6 mph 6.9 mph 82% 0.00 in 0.00 W/m2
01:20 8.0 °F 3.7 °F 30.48 in WNW 3.5 mph 9.2 mph 82% 0.00 in 0.00 W/m2
01:21 8.0 °F 3.7 °F 30.48 in WNW 4.6 mph 6.9 mph 82% 0.00 in 0.00 W/m2
01:25 7.8 °F 3.5 °F 30.49 in NW 6.9 mph 8.1 mph 82% 0.00 in 0.00 W/m2
01:26 7.8 °F 3.5 °F 30.49 in NW 4.6 mph 10.3 mph 82% 0.00 in 0.00 W/m2
01:30 7.7 °F 3.4 °F 30.50 in WNW 6.9 mph 10.4 mph 82% 0.00 in 0.00 W/m2
01:31 7.7 °F 3.4 °F 30.50 in NW 5.8 mph 6.9 mph 82% 0.00 in 0.00 W/m2
01:35 7.6 °F 3.3 °F 30.50 in WNW 3.5 mph 10.4 mph 82% 0.00 in 0.00 W/m2
01:36 7.5 °F 3.2 °F 30.50 in NW 5.8 mph 6.9 mph 82% 0.00 in 0.00 W/m2
01:40 7.4 °F 3.1 °F 30.50 in WNW 5.8 mph 11.5 mph 82% 0.00 in 0.00 W/m2
01:41 7.3 °F 3.0 °F 30.50 in WNW 8.1 mph 9.2 mph 82% 0.00 in 0.00 W/m2
01:45 7.2 °F 2.9 °F 30.50 in NW 4.6 mph 9.2 mph 82% 0.00 in 0.00 W/m2
01:46 7.2 °F 2.9 °F 30.50 in NW 5.8 mph 8.1 mph 82% 0.00 in 0.00 W/m2
01:50 7.1 °F 2.8 °F 30.50 in WNW 5.8 mph 9.2 mph 82% 0.00 in 0.00 W/m2
01:51 7.1 °F 2.8 °F 30.50 in WNW 4.6 mph 6.9 mph 82% 0.00 in 0.00 W/m2
01:55 7.0 °F 2.7 °F 30.50 in WNW 6.9 mph 10.4 mph 82% 0.00 in 0.00 W/m2
01:56 6.9 °F 2.6 °F 30.50 in WNW 5.8 mph 10.3 mph 82% 0.00 in 0.00 W/m2
02:00 6.9 °F 2.6 °F 30.50 in WNW 5.8 mph 10.4 mph 82% 0.00 in 0.00 W/m2
02:02 6.9 °F 2.6 °F 30.50 in WNW 8.1 mph 9.2 mph 82% 0.00 in 0.00 W/m2
02:05 6.9 °F 2.6 °F 30.50 in WNW 6.9 mph 10.4 mph 82% 0.00 in 0.00 W/m2
02:07 6.9 °F 2.6 °F 30.50 in WNW 4.6 mph 6.9 mph 82% 0.00 in 0.00 W/m2
02:10 6.9 °F 2.6 °F 30.50 in NW 6.9 mph 9.2 mph 82% 0.00 in 0.00 W/m2
02:12 6.9 °F 2.6 °F 30.50 in WNW 6.9 mph 6.9 mph 82% 0.00 in 0.00 W/m2
02:15 6.9 °F 2.8 °F 30.50 in WNW 2.3 mph 9.2 mph 83% 0.00 in 0.00 W/m2
02:17 6.8 °F 2.7 °F 30.51 in WNW 4.6 mph 4.6 mph 83% 0.00 in 0.00 W/m2
02:22 6.7 °F 2.6 °F 30.51 in NW 3.4 mph 6.9 mph 83% 0.00 in 0.00 W/m2
02:25 6.7 °F 2.6 °F 30.51 in NW 3.5 mph 6.9 mph 83% 0.00 in 0.00 W/m2
02:27 6.6 °F 2.5 °F 30.51 in WNW 4.6 mph 6.9 mph 83% 0.00 in 0.00 W/m2
02:30 6.5 °F 2.2 °F 30.51 in NW 5.8 mph 8.1 mph 82% 0.00 in 0.00 W/m2
02:32 6.4 °F 2.1 °F 30.52 in WNW 3.4 mph 6.9 mph 82% 0.00 in 0.00 W/m2
02:35 6.3 °F 2.0 °F 30.52 in WNW 5.8 mph 6.9 mph 82% 0.00 in 0.00 W/m2
02:37 6.2 °F 1.9 °F 30.52 in WNW 4.6 mph 6.9 mph 82% 0.00 in 0.00 W/m2
02:42 6.1 °F 1.8 °F 30.52 in NW 4.6 mph 6.9 mph 82% 0.00 in 0.00 W/m2
02:47 6.0 °F 2.0 °F 30.52 in NW 4.6 mph 8.1 mph 83% 0.00 in 0.00 W/m2
02:52 5.8 °F 1.8 °F 30.53 in WNW 4.6 mph 6.9 mph 83% 0.00 in 0.00 W/m2
02:58 5.8 °F 1.8 °F 30.53 in WNW 5.8 mph 6.9 mph 83% 0.00 in 0.00 W/m2
03:07 5.6 °F 1.6 °F 30.53 in NW 3.4 mph 4.6 mph 83% 0.00 in 0.00 W/m2
03:12 5.5 °F 1.5 °F 30.53 in WNW 6.9 mph 6.9 mph 83% 0.00 in 0.00 W/m2
03:17 5.4 °F 1.4 °F 30.53 in WNW 5.8 mph 6.9 mph 83% 0.00 in 0.00 W/m2
03:22 5.3 °F 1.3 °F 30.53 in WNW 3.4 mph 6.9 mph 83% 0.00 in 0.00 W/m2
03:27 5.2 °F 1.2 °F 30.53 in WNW 5.8 mph 6.9 mph 83% 0.00 in 0.00 W/m2
03:32 5.1 °F 1.1 °F 30.53 in NW 4.6 mph 8.1 mph 83% 0.00 in 0.00 W/m2
03:37 5.1 °F 1.3 °F 30.54 in NW 2.3 mph 5.8 mph 84% 0.00 in 0.00 W/m2
03:43 4.9 °F 0.9 °F 30.54 in NW 2.3 mph 4.6 mph 83% 0.00 in 0.00 W/m2
03:48 4.8 °F 0.8 °F 30.54 in NW 2.3 mph 5.8 mph 83% 0.00 in 0.00 W/m2
03:53 4.7 °F 0.7 °F 30.55 in NW 2.3 mph 5.8 mph 83% 0.00 in 0.00 W/m2
03:58 4.5 °F 0.5 °F 30.55 in NW 2.3 mph 4.6 mph 83% 0.00 in 0.00 W/m2
04:03 4.4 °F 0.6 °F 30.56 in NW 4.6 mph 5.8 mph 84% 0.00 in 0.00 W/m2
04:08 4.4 °F 0.6 °F 30.56 in NW 6.9 mph 8.1 mph 84% 0.00 in 0.00 W/m2
04:13 4.4 °F 0.6 °F 30.56 in NW 6.9 mph 6.9 mph 84% 0.00 in 0.00 W/m2
04:18 4.4 °F 0.6 °F 30.56 in NW 2.3 mph 5.8 mph 84% 0.00 in 0.00 W/m2
04:23 4.4 °F 0.6 °F 30.56 in NW 3.4 mph 3.4 mph 84% 0.00 in 0.00 W/m2
04:28 4.4 °F 0.6 °F 30.57 in NW 4.6 mph 5.8 mph 84% 0.00 in 0.00 W/m2
04:33 4.4 °F 0.9 °F 30.57 in NW 6.9 mph 8.1 mph 85% 0.00 in 0.00 W/m2
04:38 4.4 °F 0.9 °F 30.58 in NW 6.9 mph 8.1 mph 85% 0.00 in 0.00 W/m2
04:43 4.4 °F 0.9 °F 30.58 in NW 1.1 mph 6.9 mph 85% 0.00 in 0.00 W/m2
04:49 4.4 °F 0.9 °F 30.58 in NW 4.6 mph 5.8 mph 85% 0.00 in 0.00 W/m2
04:54 4.4 °F 0.9 °F 30.58 in NW 2.3 mph 5.8 mph 85% 0.00 in 0.00 W/m2
04:59 4.4 °F 0.9 °F 30.59 in NW 4.6 mph 5.8 mph 85% 0.00 in 0.00 W/m2
05:04 4.4 °F 0.9 °F 30.58 in NW 2.3 mph 5.8 mph 85% 0.00 in 0.00 W/m2
05:09 4.4 °F 0.9 °F 30.59 in NW 3.4 mph 5.8 mph 85% 0.00 in 0.00 W/m2
05:14 4.4 °F 0.9 °F 30.59 in NW 2.3 mph 3.4 mph 85% 0.00 in 0.00 W/m2
05:19 4.4 °F 0.9 °F 30.59 in NW 2.3 mph 3.4 mph 85% 0.00 in 0.00 W/m2
05:24 4.3 °F 0.8 °F 30.60 in NW 2.3 mph 3.4 mph 85% 0.00 in 0.00 W/m2
05:29 4.2 °F 0.7 °F 30.60 in NW 3.4 mph 5.8 mph 85% 0.00 in 0.00 W/m2
05:34 4.1 °F 0.6 °F 30.61 in NW 2.3 mph 6.9 mph 85% 0.00 in 0.00 W/m2
05:39 4.0 °F 0.5 °F 30.61 in NW 3.4 mph 6.9 mph 85% 0.00 in 0.00 W/m2
05:44 4.0 °F 0.5 °F 30.62 in NW 2.3 mph 5.8 mph 85% 0.00 in 0.00 W/m2
05:50 3.9 °F 0.4 °F 30.62 in NW 2.3 mph 3.4 mph 85% 0.00 in 0.00 W/m2
05:55 3.8 °F 0.3 °F 30.62 in NW 2.3 mph 4.6 mph 85% 0.00 in 0.00 W/m2
06:00 3.7 °F 0.2 °F 30.62 in NNW 2.3 mph 5.8 mph 85% 0.00 in 0.00 W/m2
06:05 3.6 °F 0.1 °F 30.63 in NNW 2.3 mph 3.4 mph 85% 0.00 in 0.00 W/m2
06:10 3.5 °F 0.0 °F 30.63 in NNW 2.3 mph 3.4 mph 85% 0.00 in 0.00 W/m2
06:15 3.4 °F -0.1 °F 30.63 in NNW 2.3 mph 3.4 mph 85% 0.00 in 0.00 W/m2
06:20 3.4 °F -0.1 °F 30.63 in NNW 2.3 mph 4.6 mph 85% 0.00 in 0.00 W/m2
06:25 3.3 °F -0.2 °F 30.63 in NNW 2.3 mph 3.4 mph 85% 0.00 in 0.00 W/m2
06:30 3.3 °F -0.2 °F 30.64 in NNW 1.1 mph 3.4 mph 85% 0.00 in 0.00 W/m2
06:35 3.3 °F -0.2 °F 30.64 in NNW 1.1 mph 2.3 mph 85% 0.00 in 0.00 W/m2
06:40 3.4 °F 0.2 °F 30.65 in NNW 2.3 mph 2.3 mph 86% 0.00 in 0.00 W/m2
06:45 3.5 °F 0.3 °F 30.66 in NNW 3.4 mph 4.6 mph 86% 0.00 in 0.00 W/m2
06:51 3.5 °F 0.3 °F 30.66 in NNW 3.4 mph 3.4 mph 86% 0.00 in 5.00 W/m2
06:56 3.6 °F 0.4 °F 30.66 in NW 3.4 mph 4.6 mph 86% 0.00 in 7.00 W/m2
07:01 3.7 °F 0.5 °F 30.66 in NW 3.4 mph 3.4 mph 86% 0.00 in 9.00 W/m2
07:06 3.7 °F 0.5 °F 30.67 in NNW 4.6 mph 4.6 mph 86% 0.00 in 12.00 W/m2
07:11 3.9 °F 0.6 °F 30.67 in NW 3.4 mph 4.6 mph 86% 0.00 in 16.00 W/m2
07:16 4.1 °F 0.9 °F 30.67 in NW 3.4 mph 4.6 mph 86% 0.00 in 19.00 W/m2
07:21 4.3 °F 1.3 °F 30.68 in NW 3.4 mph 6.9 mph 87% 0.00 in 21.00 W/m2
07:26 4.5 °F 1.5 °F 30.68 in NW 4.6 mph 4.6 mph 87% 0.00 in 26.00 W/m2
07:31 4.7 °F 1.7 °F 30.68 in NW 4.6 mph 5.8 mph 87% 0.00 in 28.00 W/m2
07:36 4.9 °F 1.9 °F 30.68 in NW 4.6 mph 6.9 mph 87% 0.00 in 35.00 W/m2
07:42 5.0 °F 2.0 °F 30.68 in NW 2.3 mph 4.6 mph 87% 0.00 in 40.00 W/m2
07:46 5.2 °F 2.2 °F 30.69 in NW 2.3 mph 6.9 mph 87% 0.00 in 40.00 W/m2
07:52 5.6 °F 2.6 °F 30.69 in NW 3.4 mph 5.8 mph 87% 0.00 in 46.00 W/m2
07:57 6.0 °F 3.0 °F 30.70 in NNW 3.4 mph 5.8 mph 87% 0.00 in 56.00 W/m2
08:02 6.3 °F 3.3 °F 30.70 in NW 3.4 mph 5.8 mph 87% 0.00 in 53.00 W/m2
08:07 6.7 °F 3.7 °F 30.70 in NW 4.6 mph 5.8 mph 87% 0.00 in 76.00 W/m2
08:12 7.2 °F 4.4 °F 30.71 in NNW 4.6 mph 5.8 mph 88% 0.00 in 81.00 W/m2
08:17 7.6 °F 4.8 °F 30.70 in NNW 4.6 mph 6.9 mph 88% 0.00 in 67.00 W/m2
08:22 8.1 °F 5.3 °F 30.71 in NW 2.3 mph 4.6 mph 88% 0.00 in 79.00 W/m2
08:27 8.6 °F 5.5 °F 30.71 in North 2.3 mph 5.8 mph 87% 0.00 in 97.00 W/m2
08:32 9.1 °F 6.0 °F 30.71 in NNW 5.8 mph 6.9 mph 87% 0.00 in 137.00 W/m2
08:38 9.5 °F 6.4 °F 30.71 in NNW 2.3 mph 6.9 mph 87% 0.00 in 135.00 W/m2
08:43 10.8 °F 7.2 °F 30.72 in NNW 2.3 mph 6.9 mph 85% 0.00 in 148.00 W/m2
08:48 11.2 °F 6.8 °F 30.72 in NNW 3.4 mph 5.8 mph 82% 0.00 in 181.00 W/m2
08:53 11.4 °F 6.7 °F 30.72 in NNW 3.4 mph 5.8 mph 81% 0.00 in 190.00 W/m2
08:58 11.8 °F 6.8 °F 30.73 in NW 3.4 mph 6.9 mph 80% 0.00 in 200.00 W/m2
09:03 12.3 °F 7.0 °F 30.73 in NNW 5.8 mph 6.9 mph 79% 0.00 in 160.00 W/m2
09:08 12.8 °F 7.5 °F 30.73 in NNW 2.3 mph 5.8 mph 79% 0.00 in 63.00 W/m2
09:13 13.2 °F 7.6 °F 30.73 in NNW 3.4 mph 4.6 mph 78% 0.00 in 70.00 W/m2
09:18 13.5 °F 7.9 °F 30.73 in NNW 3.4 mph 5.8 mph 78% 0.00 in 63.00 W/m2
09:23 13.8 °F 8.2 °F 30.73 in NNW 4.6 mph 6.9 mph 78% 0.00 in 72.00 W/m2
09:29 14.1 °F 8.5 °F 30.73 in North 2.3 mph 5.8 mph 78% 0.00 in 102.00 W/m2
09:34 14.4 °F 8.5 °F 30.74 in NW 3.4 mph 6.9 mph 77% 0.00 in 63.00 W/m2
09:39 14.6 °F 8.7 °F 30.74 in NW 3.4 mph 5.8 mph 77% 0.00 in 77.00 W/m2
09:44 14.9 °F 8.7 °F 30.74 in NNW 4.6 mph 5.8 mph 76% 0.00 in 62.00 W/m2
09:49 15.1 °F 8.9 °F 30.74 in NW 3.4 mph 6.9 mph 76% 0.00 in 69.00 W/m2
09:54 15.5 °F 9.3 °F 30.75 in NNW 4.6 mph 5.8 mph 76% 0.00 in 62.00 W/m2
09:59 15.9 °F 9.7 °F 30.75 in NW 5.8 mph 8.1 mph 76% 0.00 in 62.00 W/m2
10:04 16.2 °F 9.7 °F 30.75 in NNW 5.8 mph 6.9 mph 75% 0.00 in 63.00 W/m2
10:09 16.4 °F 9.9 °F 30.75 in NW 5.8 mph 6.9 mph 75% 0.00 in 63.00 W/m2
10:14 16.8 °F 10.6 °F 30.76 in NW 4.6 mph 6.9 mph 76% 0.00 in 155.00 W/m2
10:19 17.2 °F 10.6 °F 30.76 in NW 4.6 mph 8.1 mph 75% 0.00 in 72.00 W/m2
10:25 17.6 °F 11.0 °F 30.76 in NNW 5.8 mph 8.1 mph 75% 0.00 in 63.00 W/m2
10:30 18.1 °F 11.2 °F 30.76 in NNW 3.4 mph 8.1 mph 74% 0.00 in 65.00 W/m2
10:35 18.6 °F 11.7 °F 30.76 in NW 5.8 mph 6.9 mph 74% 0.00 in 65.00 W/m2
10:40 19.1 °F 12.2 °F 30.76 in NNW 3.4 mph 8.1 mph 74% 0.00 in 67.00 W/m2
10:45 19.5 °F 12.6 °F 30.76 in NNW 6.9 mph 8.1 mph 74% 0.00 in 63.00 W/m2
10:50 20.0 °F 12.8 °F 30.76 in NW 1.1 mph 6.9 mph 73% 0.00 in 144.00 W/m2
10:55 20.3 °F 13.0 °F 30.76 in North 4.6 mph 5.8 mph 73% 0.00 in 107.00 W/m2
11:00 20.8 °F 13.2 °F 30.76 in NNW 4.6 mph 6.9 mph 72% 0.00 in 218.00 W/m2
11:05 21.2 °F 13.9 °F 30.76 in NW 5.8 mph 6.9 mph 73% 0.00 in 406.00 W/m2
11:10 21.9 °F 14.3 °F 30.76 in North 5.8 mph 8.1 mph 72% 0.00 in 471.00 W/m2
11:15 22.1 °F 14.1 °F 30.76 in NW 4.6 mph 6.9 mph 71% 0.00 in 459.00 W/m2
11:20 22.5 °F 14.5 °F 30.76 in Calm   6.9 mph 71% 0.00 in 526.00 W/m2
11:25 23.0 °F 15.0 °F 30.76 in NNW 5.8 mph 5.8 mph 71% 0.00 in 555.00 W/m2
11:30 23.3 °F 15.3 °F 30.76 in NW 5.8 mph 5.8 mph 71% 0.00 in 596.00 W/m2
11:35 23.6 °F 15.3 °F 30.76 in NW 4.6 mph 6.9 mph 70% 0.00 in 601.00 W/m2
11:40 23.9 °F 15.9 °F 30.76 in NW 4.6 mph 4.6 mph 71% 0.00 in 610.00 W/m2
11:45 24.2 °F 15.8 °F 30.76 in NW 2.3 mph 5.8 mph 70% 0.00 in 613.00 W/m2
11:50 24.3 °F 15.9 °F 30.76 in NNW 2.3 mph 4.6 mph 70% 0.00 in 615.00 W/m2
11:55 24.5 °F 15.8 °F 30.76 in NNW 6.9 mph 6.9 mph 69% 0.00 in 617.00 W/m2
12:00 24.8 °F 16.4 °F 30.76 in NW 4.6 mph 6.9 mph 70% 0.00 in 617.00 W/m2
12:05 24.9 °F 16.5 °F 30.77 in NW 4.6 mph 6.9 mph 70% 0.00 in 615.00 W/m2
12:10 24.8 °F 16.1 °F 30.77 in WNW 6.9 mph 6.9 mph 69% 0.00 in 615.00 W/m2
12:15 24.6 °F 15.9 °F 30.77 in WNW 5.8 mph 6.9 mph 69% 0.00 in 615.00 W/m2
12:21 25.1 °F 16.7 °F 30.76 in WNW 5.8 mph 5.8 mph 70% 0.00 in 615.00 W/m2
12:26 25.5 °F 16.8 °F 30.76 in WNW 3.4 mph 5.8 mph 69% 0.00 in 613.00 W/m2
12:31 25.7 °F 17.0 °F 30.76 in NW 4.6 mph 4.6 mph 69% 0.00 in 612.00 W/m2
12:36 25.6 °F 16.5 °F 30.76 in NW 4.6 mph 5.8 mph 68% 0.00 in 610.00 W/m2
12:41 26.2 °F 17.4 °F 30.76 in Calm   3.4 mph 69% 0.00 in 606.00 W/m2
12:46 25.8 °F 17.0 °F 30.76 in NW 3.4 mph 5.8 mph 69% 0.00 in 605.00 W/m2
12:51 26.2 °F 17.1 °F 30.76 in NNW 3.4 mph 4.6 mph 68% 0.00 in 603.00 W/m2
12:56 26.6 °F 17.5 °F 30.76 in NW 3.4 mph 4.6 mph 68% 0.00 in 598.00 W/m2
13:01 26.7 °F 17.6 °F 30.76 in NW 2.3 mph 3.4 mph 68% 0.00 in 594.00 W/m2
13:07 27.1 °F 17.6 °F 30.76 in NNW 4.6 mph 5.8 mph 67% 0.00 in 587.00 W/m2
13:12 26.7 °F 17.2 °F 30.76 in NW 3.4 mph 5.8 mph 67% 0.00 in 585.00 W/m2
13:17 26.9 °F 17.1 °F 30.76 in NNW 4.6 mph 5.8 mph 66% 0.00 in 578.00 W/m2
13:22 27.5 °F 18.0 °F 30.76 in NW 3.4 mph 4.6 mph 67% 0.00 in 573.00 W/m2
13:27 27.8 °F 18.3 °F 30.77 in NW 2.3 mph 6.9 mph 67% 0.00 in 570.00 W/m2
13:32 27.4 °F 17.5 °F 30.76 in NW 3.4 mph 6.9 mph 66% 0.00 in 543.00 W/m2
13:37 27.5 °F 17.3 °F 30.76 in NW 3.4 mph 5.8 mph 65% 0.00 in 559.00 W/m2
13:42 28.4 °F 17.8 °F 30.76 in NNW 2.3 mph 4.6 mph 64% 0.00 in 548.00 W/m2
13:47 28.5 °F 17.5 °F 30.77 in North 4.6 mph 8.1 mph 63% 0.00 in 545.00 W/m2
13:52 28.3 °F 17.7 °F 30.77 in North 5.8 mph 6.9 mph 64% 0.00 in 524.00 W/m2
13:57 28.1 °F 16.8 °F 30.77 in NNW 5.8 mph 6.9 mph 62% 0.00 in 519.00 W/m2
14:02 28.5 °F 16.8 °F 30.77 in NNW 4.6 mph 5.8 mph 61% 0.00 in 510.00 W/m2
14:08 28.3 °F 16.2 °F 30.77 in NNW 3.4 mph 6.9 mph 60% 0.00 in 499.00 W/m2
14:13 28.3 °F 16.6 °F 30.77 in NNW 3.4 mph 5.8 mph 61% 0.00 in 489.00 W/m2
14:18 28.0 °F 15.9 °F 30.77 in North 1.1 mph 5.8 mph 60% 0.00 in 480.00 W/m2
14:23 28.6 °F 16.9 °F 30.77 in NNW 4.6 mph 6.9 mph 61% 0.00 in 461.00 W/m2
14:28 28.5 °F 17.1 °F 30.76 in Calm   5.8 mph 62% 0.00 in 455.00 W/m2
14:33 28.0 °F 15.9 °F 30.76 in North 4.6 mph 5.8 mph 60% 0.00 in 441.00 W/m2
14:38 28.5 °F 16.8 °F 30.76 in North 3.4 mph 4.6 mph 61% 0.00 in 374.00 W/m2
14:43 28.2 °F 16.1 °F 30.76 in Calm   3.4 mph 60% 0.00 in 216.00 W/m2
14:48 28.2 °F 17.2 °F 30.77 in ENE 3.4 mph 5.8 mph 63% 0.00 in 178.00 W/m2
14:53 27.9 °F 17.7 °F 30.77 in ENE 3.4 mph 5.8 mph 65% 0.00 in 250.00 W/m2
14:58 27.9 °F 17.3 °F 30.77 in ENE 2.3 mph 5.8 mph 64% 0.00 in 230.00 W/m2
15:03 27.9 °F 17.3 °F 30.77 in NE 4.6 mph 8.1 mph 64% 0.00 in 178.00 W/m2
15:08 27.6 °F 17.0 °F 30.77 in NE 3.4 mph 6.9 mph 64% 0.00 in 160.00 W/m2
15:14 27.5 °F 16.9 °F 30.77 in NE 4.6 mph 8.1 mph 64% 0.00 in 199.00 W/m2
15:19 27.4 °F 17.5 °F 30.77 in NE 3.4 mph 5.8 mph 66% 0.00 in 199.00 W/m2
15:24 27.4 °F 17.5 °F 30.77 in ENE 2.3 mph 4.6 mph 66% 0.00 in 195.00 W/m2
15:29 27.2 °F 17.0 °F 30.77 in NE 5.8 mph 9.2 mph 65% 0.00 in 91.00 W/m2
15:34 27.1 °F 16.6 °F 30.78 in NE 3.4 mph 5.8 mph 64% 0.00 in 121.00 W/m2
15:39 26.9 °F 16.0 °F 30.78 in NE 1.1 mph 5.8 mph 63% 0.00 in 62.00 W/m2
15:44 26.7 °F 15.8 °F 30.78 in ENE 4.6 mph 8.1 mph 63% 0.00 in 88.00 W/m2
15:49 26.3 °F 15.4 °F 30.78 in ENE 5.8 mph 8.1 mph 63% 0.00 in 69.00 W/m2
15:54 26.1 °F 14.9 °F 30.78 in ENE 4.6 mph 8.1 mph 62% 0.00 in 70.00 W/m2
16:00 25.8 °F 14.6 °F 30.78 in ENE 3.4 mph 8.1 mph 62% 0.00 in 79.00 W/m2
16:05 25.6 °F 14.4 °F 30.79 in ENE 3.4 mph 5.8 mph 62% 0.00 in 91.00 W/m2
16:10 25.6 °F 15.1 °F 30.78 in Calm   5.8 mph 64% 0.00 in 113.00 W/m2
16:15 25.3 °F 14.8 °F 30.79 in ENE 2.3 mph 4.6 mph 64% 0.00 in 100.00 W/m2
16:20 25.1 °F 15.0 °F 30.79 in ENE 3.4 mph 4.6 mph 65% 0.00 in 81.00 W/m2
16:25 24.7 °F 15.0 °F 30.79 in ENE 1.1 mph 5.8 mph 66% 0.00 in 86.00 W/m2
16:30 24.5 °F 15.1 °F 30.79 in ENE 2.3 mph 5.8 mph 67% 0.00 in 77.00 W/m2
16:35 24.3 °F 15.3 °F 30.79 in NE 3.4 mph 5.8 mph 68% 0.00 in 70.00 W/m2
16:40 24.3 °F 15.3 °F 30.79 in NE 5.8 mph 5.8 mph 68% 0.00 in 63.00 W/m2
16:45 24.1 °F 15.4 °F 30.79 in NE 3.4 mph 4.6 mph 69% 0.00 in 54.00 W/m2
16:50 23.8 °F 15.1 °F 30.80 in ENE 1.1 mph 1.1 mph 69% 0.00 in 40.00 W/m2
16:55 23.5 °F 15.2 °F 30.79 in ENE 3.4 mph 4.6 mph 70% 0.00 in 35.00 W/m2
17:00 23.4 °F 15.4 °F 30.79 in NE 6.9 mph 6.9 mph 71% 0.00 in 32.00 W/m2
17:06 23.3 °F 15.3 °F 30.79 in NE 4.6 mph 4.6 mph 71% 0.00 in 21.00 W/m2
17:11 23.1 °F 15.4 °F 30.79 in ENE 3.4 mph 8.1 mph 72% 0.00 in 14.00 W/m2
17:16 22.9 °F 15.6 °F 30.79 in NE 2.3 mph 6.9 mph 73% 0.00 in 7.00 W/m2
17:21 22.3 °F 15.0 °F 30.79 in NE 2.3 mph 5.8 mph 73% 0.00 in 0.00 W/m2
17:26 21.7 °F 14.7 °F 30.80 in NE 3.4 mph 4.6 mph 74% 0.00 in 0.00 W/m2
17:31 21.4 °F 14.7 °F 30.79 in NE 3.4 mph 5.8 mph 75% 0.00 in 0.00 W/m2
17:36 21.2 °F 14.5 °F 30.79 in NE 2.3 mph 4.6 mph 75% 0.00 in 0.00 W/m2
17:41 21.0 °F 14.3 °F 30.80 in ENE 1.1 mph 5.8 mph 75% 0.00 in 0.00 W/m2
17:46 20.8 °F 14.4 °F 30.79 in NE 1.1 mph 5.8 mph 76% 0.00 in 0.00 W/m2
17:51 20.5 °F 13.9 °F 30.79 in NE 1.1 mph 5.8 mph 75% 0.00 in 0.00 W/m2
17:56 20.4 °F 14.1 °F 30.79 in ENE 5.8 mph 8.1 mph 76% 0.00 in 0.00 W/m2
18:02 20.2 °F 13.9 °F 30.79 in NE 4.6 mph 9.2 mph 76% 0.00 in 0.00 W/m2
18:07 20.0 °F 14.0 °F 30.80 in ENE 1.1 mph 5.8 mph 77% 0.00 in 0.00 W/m2
18:12 19.8 °F 13.8 °F 30.79 in NE 4.6 mph 6.9 mph 77% 0.00 in 0.00 W/m2
18:17 19.7 °F 14.0 °F 30.80 in NE 2.3 mph 5.8 mph 78% 0.00 in 0.00 W/m2
18:22 19.4 °F 13.7 °F 30.81 in NE 2.3 mph 4.6 mph 78% 0.00 in 0.00 W/m2
18:27 19.3 °F 13.9 °F 30.81 in NE 1.1 mph 2.3 mph 79% 0.00 in 0.00 W/m2
18:32 19.0 °F 13.6 °F 30.81 in NE 2.3 mph 5.8 mph 79% 0.00 in 0.00 W/m2
18:37 18.8 °F 13.4 °F 30.81 in Calm   3.4 mph 79% 0.00 in 0.00 W/m2
18:42 18.3 °F 13.2 °F 30.81 in NE 2.3 mph 4.6 mph 80% 0.00 in 0.00 W/m2
18:47 17.8 °F 12.7 °F 30.82 in Calm   3.4 mph 80% 0.00 in 0.00 W/m2
18:52 17.2 °F 12.4 °F 30.82 in NE 3.4 mph 3.4 mph 81% 0.00 in 0.00 W/m2
18:57 16.5 °F 11.7 °F 30.82 in Calm   2.3 mph 81% 0.00 in 0.00 W/m2
19:02 16.7 °F 12.2 °F 30.82 in NE 2.3 mph 3.4 mph 82% 0.00 in 0.00 W/m2
19:07 16.8 °F 12.5 °F 30.82 in Calm   1.1 mph 83% 0.00 in 0.00 W/m2
19:13 16.7 °F 12.4 °F 30.82 in NE 1.1 mph 3.4 mph 83% 0.00 in 0.00 W/m2
19:18 16.6 °F 12.4 °F 30.82 in NE 1.1 mph 3.4 mph 83% 0.00 in 0.00 W/m2
19:23 16.4 °F 12.4 °F 30.82 in Calm     84% 0.00 in 0.00 W/m2
19:28 15.9 °F 11.7 °F 30.82 in NE 2.3 mph 4.6 mph 83% 0.00 in 0.00 W/m2
19:33 16.1 °F 12.1 °F 30.82 in NE 1.1 mph 4.6 mph 84% 0.00 in 0.00 W/m2
19:38 16.1 °F 12.1 °F 30.82 in NE 1.1 mph 5.8 mph 84% 0.00 in 0.00 W/m2
19:43 15.4 °F 11.4 °F 30.82 in NE 2.3 mph 3.4 mph 84% 0.00 in 0.00 W/m2
19:48 15.3 °F 11.6 °F 30.81 in NE 2.3 mph 5.8 mph 85% 0.00 in 0.00 W/m2
19:53 15.5 °F 11.8 °F 30.81 in NE 2.3 mph 4.6 mph 85% 0.00 in 0.00 W/m2
19:58 15.6 °F 12.2 °F 30.82 in NNE 4.6 mph 4.6 mph 86% 0.00 in 0.00 W/m2
20:03 15.5 °F 11.8 °F 30.82 in NNE 1.1 mph 4.6 mph 85% 0.00 in 0.00 W/m2
20:09 15.7 °F 12.3 °F 30.82 in NNE 3.4 mph 4.6 mph 86% 0.00 in 0.00 W/m2
20:19 15.4 °F 12.0 °F 30.81 in NNE 1.1 mph 4.6 mph 86% 0.00 in 0.00 W/m2
20:24 15.4 °F 12.0 °F 30.81 in NNE 2.3 mph 4.6 mph 86% 0.00 in 0.00 W/m2
20:29 15.4 °F 12.0 °F 30.82 in NNE 3.4 mph 4.6 mph 86% 0.00 in 0.00 W/m2
20:34 15.5 °F 12.1 °F 30.82 in NNE 3.4 mph 4.6 mph 86% 0.00 in 0.00 W/m2
20:39 15.3 °F 11.9 °F 30.82 in NNE 1.1 mph 2.3 mph 86% 0.00 in 0.00 W/m2
20:44 15.0 °F 11.6 °F 30.82 in NNE 1.1 mph 5.8 mph 86% 0.00 in 0.00 W/m2
20:49 15.5 °F 12.1 °F 30.82 in Calm   5.8 mph 86% 0.00 in 0.00 W/m2
20:55 15.7 °F 12.3 °F 30.82 in NNE 1.1 mph 3.4 mph 86% 0.00 in 0.00 W/m2
21:00 15.3 °F 11.6 °F 30.82 in Calm   4.6 mph 85% 0.00 in 0.00 W/m2
21:05 15.3 °F 11.9 °F 30.82 in NE 3.4 mph 5.8 mph 86% 0.00 in 0.00 W/m2
21:10 15.4 °F 12.0 °F 30.82 in Calm   4.6 mph 86% 0.00 in 0.00 W/m2
21:15 14.8 °F 11.4 °F 30.82 in NE 3.4 mph 3.4 mph 86% 0.00 in 0.00 W/m2
21:20 15.0 °F 11.6 °F 30.82 in NE 3.4 mph 5.8 mph 86% 0.00 in 0.00 W/m2
21:25 14.7 °F 11.3 °F 30.81 in NE 1.1 mph 4.6 mph 86% 0.00 in 0.00 W/m2
21:30 14.3 °F 10.9 °F 30.81 in NE 1.1 mph 4.6 mph 86% 0.00 in 0.00 W/m2
21:35 14.0 °F 10.6 °F 30.81 in Calm   3.4 mph 86% 0.00 in 0.00 W/m2
21:40 14.1 °F 10.9 °F 30.81 in Calm     87% 0.00 in 0.00 W/m2
21:45 14.0 °F 10.9 °F 30.81 in Calm     87% 0.00 in 0.00 W/m2
21:50 13.8 °F 10.6 °F 30.82 in Calm     87% 0.00 in 0.00 W/m2
21:55 13.6 °F 10.5 °F 30.82 in Calm     87% 0.00 in 0.00 W/m2
22:01 14.0 °F 11.1 °F 30.82 in Calm   2.3 mph 88% 0.00 in 0.00 W/m2
22:06 13.4 °F 10.3 °F 30.82 in NNE 1.1 mph 4.6 mph 87% 0.00 in 0.00 W/m2
22:11 13.3 °F 10.4 °F 30.82 in NE 1.1 mph 2.3 mph 88% 0.00 in 0.00 W/m2
22:16 13.3 °F 10.4 °F 30.81 in NE 1.1 mph 3.4 mph 88% 0.00 in 0.00 W/m2
22:21 13.7 °F 11.1 °F 30.80 in NE 2.3 mph 3.4 mph 89% 0.00 in 0.00 W/m2
22:26 13.9 °F 11.3 °F 30.80 in NE 2.3 mph 2.3 mph 89% 0.00 in 0.00 W/m2
22:31 13.8 °F 10.9 °F 30.80 in NE 1.1 mph 2.3 mph 88% 0.00 in 0.00 W/m2
22:36 13.5 °F 10.6 °F 30.80 in NE 2.3 mph 2.3 mph 88% 0.00 in 0.00 W/m2
22:41 13.6 °F 10.7 °F 30.80 in NE 3.4 mph 4.6 mph 88% 0.00 in 0.00 W/m2
22:46 14.2 °F 11.6 °F 30.80 in NE 2.3 mph 5.8 mph 89% 0.00 in 0.00 W/m2
22:51 14.0 °F 11.1 °F 30.80 in NE 4.6 mph 4.6 mph 88% 0.00 in 0.00 W/m2
22:57 13.9 °F 11.0 °F 30.79 in NE 5.8 mph 5.8 mph 88% 0.00 in 0.00 W/m2
23:02 13.6 °F 11.0 °F 30.80 in NE 2.3 mph 5.8 mph 89% 0.00 in 0.00 W/m2
23:07 13.2 °F 10.3 °F 30.80 in NE 5.8 mph 6.9 mph 88% 0.00 in 0.00 W/m2
23:12 13.2 °F 10.6 °F 30.80 in NE 2.3 mph 4.6 mph 89% 0.00 in 0.00 W/m2
23:17 13.4 °F 10.8 °F 30.80 in NE 1.1 mph 4.6 mph 89% 0.00 in 0.00 W/m2
23:22 13.0 °F 10.4 °F 30.80 in NE 1.1 mph 3.4 mph 89% 0.00 in 0.00 W/m2
23:27 12.8 °F 10.2 °F 30.80 in NE 3.4 mph 4.6 mph 89% 0.00 in 0.00 W/m2
23:32 12.8 °F 10.2 °F 30.80 in NE 2.3 mph 3.4 mph 89% 0.00 in 0.00 W/m2
23:37 12.2 °F 9.6 °F 30.80 in NE 2.3 mph 2.3 mph 89% 0.00 in 0.00 W/m2
23:42 12.4 °F 9.8 °F 30.79 in NE 1.1 mph 4.6 mph 89% 0.00 in 0.00 W/m2
23:47 12.8 °F 10.4 °F 30.79 in ENE 1.1 mph 4.6 mph 90% 0.00 in 0.00 W/m2
23:52 13.9 °F 11.5 °F 30.79 in ENE 1.1 mph 8.1 mph 90% 0.00 in 0.00 W/m2
23:57 14.5 °F 12.1 °F 30.78 in ENE 3.4 mph 5.8 mph 90% 0.00 in 0.00 W/m2
peotoneweather.com
Compliments of Weather Underground - 3.5 mb